KHKA/HKA METAR and TAF weather

Enter ICAO airport designator
Station Type Date Time Source
KHKA METAR 2019/08/25 13:53 UTC NOAA

KHKA 251353Z AUTO 16004KT 10SM BKN100 24/22 A2997 RMK AO2 SLP145 T02440217 $


Station Type Date Time Source
KHKA Decoded METAR 2019/08/25 13:53 UTC NOAA

Station name not available
Aug 25, 2019 - 09:53 AM EDT / 2019.08.25 1353 UTC
Wind: from the SSE (160 degrees) at 5 MPH (4 KT):0
Visibility: 10 mile(s):0
Sky conditions: mostly cloudy
Temperature: 75.9 F (24.4 C)
Dew Point: 71.1 F (21.7 C)
Relative Humidity: 84%
Pressure (altimeter): 29.97 in. Hg (1014 hPa)
ob: KHKA 251353Z AUTO 16004KT 10SM BKN100 24/22 A2997 RMK AO2 SLP145 T02440217
cycle: 14

Station Type Date Time Source
KHKA TAF UTC NOAA

Error!

Example: see airport list